Time;durP1;ratioP1;P1;durP2;ratioP2;P2;SDS_P1;SDS_P2;PMS_P1;PMS_P2;Temp;Humidity;BMP_temperature;BMP_pressure;BME280_temperature;BME280_humidity;BME280_pressure;Samples;Min_cycle;Max_cycle;Signal;HPM_P1;HPM_P2
2023/04/06 00:01:07;;;;;;;10.60;5.55;;;;;;;;;;4992315;28;20054;-82
2023/04/06 00:03:33;;;;;;;9.68;5.70;;;;;;;;;;5010462;28;20096;-83
2023/04/06 00:05:59;;;;;;;9.02;5.60;;;;;;;;;;5004247;28;20041;-82
2023/04/06 00:08:26;;;;;;;9.57;5.47;;;;;;;;;;5008228;28;20038;-83
2023/04/06 00:10:52;;;;;;;11.68;5.55;;;;;;;;;;4980431;28;20066;-82
2023/04/06 00:13:18;;;;;;;10.05;6.07;;;;;;;;;;5008482;28;20050;-83
2023/04/06 00:15:44;;;;;;;10.25;5.47;;;;;;;;;;5009343;28;20456;-83
2023/04/06 00:18:12;;;;;;;9.45;5.15;;;;;;;;;;5007321;28;20046;-83
2023/04/06 00:20:38;;;;;;;11.07;5.70;;;;;;;;;;5007178;28;20046;-84
2023/04/06 00:23:04;;;;;;;11.07;5.53;;;;;;;;;;5006550;28;20050;-83
2023/04/06 00:25:30;;;;;;;9.23;5.60;;;;;;;;;;5004288;28;20679;-84
2023/04/06 00:27:56;;;;;;;7.63;5.40;;;;;;;;;;5006236;28;20445;-84
2023/04/06 00:30:22;;;;;;;9.77;5.90;;;;;;;;;;5008253;28;20073;-83
2023/04/06 00:32:48;;;;;;;10.88;5.50;;;;;;;;;;5009319;28;20046;-82
2023/04/06 00:35:15;;;;;;;9.00;5.65;;;;;;;;;;5004631;28;20066;-83
2023/04/06 00:37:41;;;;;;;9.35;5.75;;;;;;;;;;5004112;28;20050;-84
2023/04/06 00:40:08;;;;;;;10.40;5.53;;;;;;;;;;5006505;28;20038;-83
2023/04/06 00:42:34;;;;;;;11.48;5.65;;;;;;;;;;5009871;28;20049;-83
2023/04/06 00:45:01;;;;;;;9.27;5.63;;;;;;;;;;5007418;28;20111;-83
2023/04/06 00:47:27;;;;;;;8.10;5.50;;;;;;;;;;5008899;28;20469;-83
2023/04/06 00:49:54;;;;;;;9.85;6.00;;;;;;;;;;5007276;28;20513;-83
2023/04/06 00:52:21;;;;;;;9.90;5.72;;;;;;;;;;5007276;28;20047;-82
2023/04/06 00:54:47;;;;;;;10.10;5.50;;;;;;;;;;5007519;28;20046;-83
2023/04/06 00:57:13;;;;;;;11.88;6.40;;;;;;;;;;5008399;28;20109;-83
2023/04/06 00:59:40;;;;;;;9.88;5.75;;;;;;;;;;5007620;28;20130;-83
2023/04/06 01:02:06;;;;;;;9.30;5.70;;;;;;;;;;5006212;28;20053;-83
2023/04/06 01:04:32;;;;;;;8.77;5.88;;;;;;;;;;5008249;28;20042;-82
2023/04/06 01:06:59;;;;;;;9.80;6.25;;;;;;;;;;5006904;28;20049;-83
2023/04/06 01:09:25;;;;;;;9.75;6.38;;;;;;;;;;5005288;28;20047;-83
2023/04/06 01:11:51;;;;;;;10.73;5.75;;;;;;;;;;4997121;28;20058;-82
2023/04/06 01:14:17;;;;;;;13.15;6.05;;;;;;;;;;5007711;28;20115;-83
2023/04/06 01:16:43;;;;;;;11.45;5.88;;;;;;;;;;5005814;28;20027;-82
2023/04/06 01:19:12;;;;;;;9.52;5.75;;;;;;;;;;5000761;28;20050;-86
2023/04/06 01:21:39;;;;;;;10.00;5.80;;;;;;;;;;5004451;28;20073;-82
2023/04/06 01:24:06;;;;;;;10.38;5.75;;;;;;;;;;5002594;28;20089;-83
2023/04/06 01:26:32;;;;;;;9.98;6.00;;;;;;;;;;5004436;28;20067;-84
2023/04/06 01:28:59;;;;;;;9.38;5.72;;;;;;;;;;5003917;28;20098;-84
2023/04/06 01:31:26;;;;;;;14.15;6.40;;;;;;;;;;5005162;28;20070;-83
2023/04/06 01:33:52;;;;;;;12.27;6.28;;;;;;;;;;5004011;28;20050;-83
2023/04/06 01:36:18;;;;;;;10.02;6.30;;;;;;;;;;5002264;28;20046;-83
2023/04/06 01:38:44;;;;;;;11.95;6.50;;;;;;;;;;5003151;28;20392;-83
2023/04/06 01:41:10;;;;;;;10.45;6.32;;;;;;;;;;5004757;28;20054;-83
2023/04/06 01:43:36;;;;;;;10.13;6.50;;;;;;;;;;5002701;28;20054;-84
2023/04/06 01:46:02;;;;;;;11.95;7.45;;;;;;;;;;5005793;28;20047;-84
2023/04/06 01:48:28;;;;;;;10.73;6.78;;;;;;;;;;5004808;28;20070;-82
2023/04/06 01:50:55;;;;;;;10.98;6.07;;;;;;;;;;5005521;28;20050;-83
2023/04/06 01:53:21;;;;;;;10.48;6.30;;;;;;;;;;5005380;28;20042;-84
2023/04/06 01:55:47;;;;;;;9.32;6.00;;;;;;;;;;5006777;28;20049;-83
2023/04/06 01:58:13;;;;;;;11.38;6.10;;;;;;;;;;5006485;28;20047;-83
2023/04/06 02:00:39;;;;;;;10.10;6.10;;;;;;;;;;4973158;28;20038;-82
2023/04/06 02:03:06;;;;;;;12.88;6.05;;;;;;;;;;5006307;28;20046;-82
2023/04/06 02:05:37;;;;;;;10.82;5.70;;;;;;;;;;5008079;28;20125;-82
2023/04/06 02:08:03;;;;;;;;;;;;;;;;;;5005594;28;20061;-83
2023/04/06 02:10:29;;;;;;;10.00;6.10;;;;;;;;;;4998722;28;19929;-84
2023/04/06 02:12:55;;;;;;;9.45;6.18;;;;;;;;;;5002892;28;20056;-83
2023/04/06 02:15:21;;;;;;;9.10;6.18;;;;;;;;;;5003444;28;20043;-82
2023/04/06 02:17:47;;;;;;;10.13;5.95;;;;;;;;;;5006180;28;20049;-83
2023/04/06 02:20:13;;;;;;;10.40;6.00;;;;;;;;;;5004531;28;20061;-83
2023/04/06 02:22:40;;;;;;;11.27;6.15;;;;;;;;;;5002000;28;20042;-83
2023/04/06 02:25:06;;;;;;;9.90;5.97;;;;;;;;;;4983500;28;20121;-83
2023/04/06 02:27:32;;;;;;;9.95;5.82;;;;;;;;;;5002154;28;20401;-83
2023/04/06 02:29:58;;;;;;;11.43;5.75;;;;;;;;;;5001065;28;20052;-83
2023/04/06 02:32:25;;;;;;;10.15;5.82;;;;;;;;;;5003192;28;20038;-82
2023/04/06 02:34:51;;;;;;;9.77;5.72;;;;;;;;;;5003947;28;20070;-82
2023/04/06 02:37:17;;;;;;;12.95;5.80;;;;;;;;;;5004937;28;20081;-82
2023/04/06 02:39:43;;;;;;;13.00;6.25;;;;;;;;;;5009022;28;20047;-84
2023/04/06 02:42:09;;;;;;;11.88;6.47;;;;;;;;;;5012293;28;20104;-83
2023/04/06 02:44:35;;;;;;;12.27;6.40;;;;;;;;;;5006110;28;20042;-84
2023/04/06 02:47:01;;;;;;;12.65;6.28;;;;;;;;;;5006773;28;20038;-83
2023/04/06 02:49:27;;;;;;;8.80;6.18;;;;;;;;;;5005084;28;20046;-84
2023/04/06 02:51:53;;;;;;;9.23;6.47;;;;;;;;;;5006201;28;20046;-83
2023/04/06 02:54:19;;;;;;;10.27;6.50;;;;;;;;;;5006447;28;20054;-82
2023/04/06 02:56:45;;;;;;;10.07;6.43;;;;;;;;;;5005136;28;20043;-82
2023/04/06 02:59:12;;;;;;;9.77;7.00;;;;;;;;;;5006775;28;20069;-83
2023/04/06 03:01:38;;;;;;;10.50;6.70;;;;;;;;;;5005284;28;20050;-83
2023/04/06 03:04:04;;;;;;;11.10;6.97;;;;;;;;;;5005613;28;20046;-84
2023/04/06 03:06:30;;;;;;;14.15;7.55;;;;;;;;;;5007062;28;20057;-85
2023/04/06 03:08:56;;;;;;;9.43;6.90;;;;;;;;;;4988151;28;20046;-83
2023/04/06 03:11:22;;;;;;;10.55;7.13;;;;;;;;;;4992349;28;20057;-81
2023/04/06 03:13:48;;;;;;;10.93;7.50;;;;;;;;;;5005627;28;20053;-82
2023/04/06 03:16:14;;;;;;;11.52;7.20;;;;;;;;;;5004844;28;20050;-84
2023/04/06 03:18:40;;;;;;;13.18;7.20;;;;;;;;;;5004333;28;20050;-82
2023/04/06 03:21:06;;;;;;;12.05;7.10;;;;;;;;;;5004956;28;20038;-83
2023/04/06 03:23:32;;;;;;;9.48;7.47;;;;;;;;;;5001277;28;20052;-84
2023/04/06 03:25:59;;;;;;;10.30;7.63;;;;;;;;;;4999404;28;20050;-82
2023/04/06 03:28:25;;;;;;;10.02;7.10;;;;;;;;;;5005040;28;20038;-83
2023/04/06 03:30:51;;;;;;;13.35;7.68;;;;;;;;;;5005085;28;20057;-83
2023/04/06 03:33:17;;;;;;;11.57;7.32;;;;;;;;;;4978171;28;20051;-83
2023/04/06 03:35:43;;;;;;;10.27;7.13;;;;;;;;;;5000377;28;20054;-83
2023/04/06 03:38:09;;;;;;;12.00;7.45;;;;;;;;;;4992826;28;20053;-82
2023/04/06 03:40:35;;;;;;;14.15;7.82;;;;;;;;;;5001158;28;20056;-84
2023/04/06 03:43:02;;;;;;;14.23;7.68;;;;;;;;;;5002610;28;20078;-83
2023/04/06 03:45:28;;;;;;;12.88;8.23;;;;;;;;;;5013581;28;20042;-82
2023/04/06 03:47:54;;;;;;;11.57;7.72;;;;;;;;;;5014985;28;20102;-82
2023/04/06 03:50:23;;;;;;;12.63;7.38;;;;;;;;;;5004969;28;20077;-82
2023/04/06 03:52:49;;;;;;;12.65;7.63;;;;;;;;;;4999335;28;20092;-82
2023/04/06 03:55:15;;;;;;;10.50;8.13;;;;;;;;;;5005232;28;20042;-83
2023/04/06 03:57:41;;;;;;;11.68;8.38;;;;;;;;;;5005752;28;20053;-83
2023/04/06 04:00:08;;;;;;;14.38;8.90;;;;;;;;;;5002802;28;20038;-83
2023/04/06 04:02:35;;;;;;;12.27;8.63;;;;;;;;;;4996123;28;20061;-82
2023/04/06 04:05:01;;;;;;;15.80;8.70;;;;;;;;;;5002686;28;20108;-83
2023/04/06 04:07:27;;;;;;;12.10;8.05;;;;;;;;;;5005078;28;20058;-81
2023/04/06 04:09:53;;;;;;;13.30;8.30;;;;;;;;;;5003286;28;20050;-83
2023/04/06 04:12:19;;;;;;;12.52;8.52;;;;;;;;;;5003738;28;20065;-83
2023/04/06 04:14:45;;;;;;;12.48;8.48;;;;;;;;;;5003492;28;20050;-82
2023/04/06 04:17:12;;;;;;;12.82;8.95;;;;;;;;;;5001271;28;20042;-83
2023/04/06 04:19:38;;;;;;;16.08;9.30;;;;;;;;;;5006078;28;20039;-83
2023/04/06 04:22:07;;;;;;;16.58;9.40;;;;;;;;;;5004479;28;20054;-81
2023/04/06 04:24:33;;;;;;;13.45;8.75;;;;;;;;;;4998514;28;20784;-84
2023/04/06 04:27:02;;;;;;;14.70;9.50;;;;;;;;;;5004249;28;20039;-82
2023/04/06 04:29:29;;;;;;;11.60;9.18;;;;;;;;;;5007281;28;20046;-82
2023/04/06 04:31:55;;;;;;;12.40;8.93;;;;;;;;;;5006437;28;20052;-82
2023/04/06 04:34:23;;;;;;;13.05;9.48;;;;;;;;;;5003095;28;20567;-83
2023/04/06 04:36:49;;;;;;;14.43;9.50;;;;;;;;;;5006869;28;20046;-82
2023/04/06 04:39:15;;;;;;;12.82;9.52;;;;;;;;;;5008580;28;20507;-82
2023/04/06 04:41:42;;;;;;;17.13;9.00;;;;;;;;;;5007100;28;20128;-82
2023/04/06 04:44:08;;;;;;;13.68;9.48;;;;;;;;;;5007820;28;20129;-84
2023/04/06 04:46:34;;;;;;;12.10;8.60;;;;;;;;;;5010739;28;20030;-84
2023/04/06 04:49:00;;;;;;;13.02;9.50;;;;;;;;;;5008155;28;20054;-82
2023/04/06 04:51:34;;;;;;;11.93;9.07;;;;;;;;;;5010732;28;20046;-84
2023/04/06 04:54:00;;;;;;;14.68;9.65;;;;;;;;;;4997658;28;20054;-82
2023/04/06 04:56:27;;;;;;;14.13;9.77;;;;;;;;;;5007881;28;20105;-86
2023/04/06 04:58:53;;;;;;;13.63;10.05;;;;;;;;;;4995728;28;20051;-84
2023/04/06 05:01:19;;;;;;;14.95;9.82;;;;;;;;;;4993157;28;20042;-83
2023/04/06 05:03:45;;;;;;;15.32;9.02;;;;;;;;;;5007697;28;20065;-82
2023/04/06 05:06:11;;;;;;;14.93;9.73;;;;;;;;;;5008223;28;20085;-83
2023/04/06 05:08:37;;;;;;;14.50;9.18;;;;;;;;;;5009018;28;20050;-82
2023/04/06 05:11:04;;;;;;;14.18;9.45;;;;;;;;;;5011219;28;20128;-82
2023/04/06 05:13:31;;;;;;;12.98;9.98;;;;;;;;;;5006519;28;20050;-82
2023/04/06 05:15:57;;;;;;;14.15;9.90;;;;;;;;;;5008467;28;20046;-82
2023/04/06 05:18:23;;;;;;;13.82;10.43;;;;;;;;;;5008070;28;20116;-82
2023/04/06 05:20:51;;;;;;;14.02;9.93;;;;;;;;;;5007412;28;20049;-83
2023/04/06 05:23:17;;;;;;;16.40;10.25;;;;;;;;;;5004844;28;20078;-82
2023/04/06 05:25:43;;;;;;;14.02;9.85;;;;;;;;;;5009275;28;20054;-84
2023/04/06 05:28:09;;;;;;;15.55;10.38;;;;;;;;;;5005980;28;20058;-84
2023/04/06 05:30:36;;;;;;;20.80;11.02;;;;;;;;;;4994077;28;20049;-82
2023/04/06 05:33:02;;;;;;;14.57;10.40;;;;;;;;;;4997215;28;20450;-84
2023/04/06 05:35:28;;;;;;;16.55;10.40;;;;;;;;;;4990670;28;20409;-83
2023/04/06 05:37:54;;;;;;;15.82;10.00;;;;;;;;;;4996174;28;20070;-83
2023/04/06 05:40:20;;;;;;;14.77;10.43;;;;;;;;;;5006116;28;20050;-84
2023/04/06 05:42:46;;;;;;;12.73;9.90;;;;;;;;;;5007190;28;20050;-83
2023/04/06 05:45:20;;;;;;;15.18;9.52;;;;;;;;;;5004750;28;20118;-83
2023/04/06 05:47:46;;;;;;;12.98;8.90;;;;;;;;;;5002421;28;20061;-84
2023/04/06 05:50:13;;;;;;;12.57;9.93;;;;;;;;;;5005631;28;20054;-84
2023/04/06 05:52:42;;;;;;;13.90;9.07;;;;;;;;;;5003373;28;20039;-83
2023/04/06 05:55:09;;;;;;;13.98;9.02;;;;;;;;;;5006020;28;20042;-84
2023/04/06 05:57:35;;;;;;;12.63;9.00;;;;;;;;;;4990957;28;20046;-84
2023/04/06 06:00:01;;;;;;;13.05;8.55;;;;;;;;;;5003451;28;20527;-84
2023/04/06 06:02:27;;;;;;;13.57;9.52;;;;;;;;;;4982094;28;20073;-83
2023/04/06 06:04:53;;;;;;;12.38;8.52;;;;;;;;;;5002335;28;20039;-85
2023/04/06 06:07:19;;;;;;;12.07;9.10;;;;;;;;;;5000956;28;20096;-84
2023/04/06 06:09:45;;;;;;;13.43;8.60;;;;;;;;;;4997105;28;20051;-86
2023/04/06 06:12:11;;;;;;;11.75;8.75;;;;;;;;;;4999009;28;20114;-85
2023/04/06 06:14:37;;;;;;;10.77;8.30;;;;;;;;;;4992896;28;20054;-84
2023/04/06 06:17:03;;;;;;;11.98;8.38;;;;;;;;;;5007155;28;20030;-85
2023/04/06 06:19:29;;;;;;;14.52;8.40;;;;;;;;;;5009691;28;20038;-87
2023/04/06 06:21:58;;;;;;;11.57;8.00;;;;;;;;;;5002825;28;20055;-83
2023/04/06 06:24:24;;;;;;;12.43;8.55;;;;;;;;;;5000878;28;20045;-85
2023/04/06 06:26:50;;;;;;;12.88;8.70;;;;;;;;;;5001988;28;20141;-85
2023/04/06 06:29:17;;;;;;;12.70;8.63;;;;;;;;;;4997340;28;20408;-85
2023/04/06 06:31:43;;;;;;;11.60;8.60;;;;;;;;;;5001852;28;20097;-84
2023/04/06 06:34:10;;;;;;;12.32;8.02;;;;;;;;;;4998739;28;20618;-85
2023/04/06 06:36:36;;;;;;;10.20;8.32;;;;;;;;;;5000526;28;20042;-84
2023/04/06 06:39:03;;;;;;;13.40;8.30;;;;;;;;;;4998145;28;20085;-85
2023/04/06 06:41:29;;;;;;;10.90;7.82;;;;;;;;;;5003005;28;20102;-84
2023/04/06 06:43:55;;;;;;;12.25;7.78;;;;;;;;;;4995560;28;20454;-84
2023/04/06 06:46:21;;;;;;;14.38;8.70;;;;;;;;;;5002989;28;20056;-83
2023/04/06 06:48:47;;;;;;;14.05;8.15;;;;;;;;;;5002734;28;20049;-85
2023/04/06 06:51:13;;;;;;;11.88;8.00;;;;;;;;;;5002198;28;20413;-83
2023/04/06 06:53:40;;;;;;;11.60;7.93;;;;;;;;;;4998063;28;20084;-85
2023/04/06 06:56:06;;;;;;;12.10;8.40;;;;;;;;;;4991087;28;20042;-85
2023/04/06 06:58:32;;;;;;;11.55;8.30;;;;;;;;;;4984543;28;20098;-85
2023/04/06 07:00:59;;;;;;;10.57;7.68;;;;;;;;;;4999273;28;20042;-86
2023/04/06 07:03:25;;;;;;;11.35;8.32;;;;;;;;;;4992555;28;20050;-85
2023/04/06 07:05:54;;;;;;;11.07;8.18;;;;;;;;;;4991308;28;20046;-86
2023/04/06 07:08:21;;;;;;;12.20;8.70;;;;;;;;;;4995809;28;20065;-85
2023/04/06 07:10:47;;;;;;;11.63;8.68;;;;;;;;;;4997383;28;20062;-85
2023/04/06 07:13:18;;;;;;;10.98;8.40;;;;;;;;;;4999582;28;20051;-85
2023/04/06 07:15:44;;;;;;;12.88;8.50;;;;;;;;;;4986240;28;20119;-85
2023/04/06 07:18:10;;;;;;;10.88;8.20;;;;;;;;;;4988551;28;20113;-85
2023/04/06 07:20:36;;;;;;;14.00;8.38;;;;;;;;;;4996581;28;20054;-85
2023/04/06 07:23:02;;;;;;;12.10;8.38;;;;;;;;;;4994492;28;20057;-84
2023/04/06 07:25:28;;;;;;;11.18;8.98;;;;;;;;;;4997975;28;20054;-85
2023/04/06 07:27:54;;;;;;;10.75;8.00;;;;;;;;;;4995005;28;20053;-84
2023/04/06 07:30:21;;;;;;;15.88;8.88;;;;;;;;;;4996748;28;20047;-85
2023/04/06 07:32:47;;;;;;;11.57;8.35;;;;;;;;;;4994571;28;20054;-84
2023/04/06 07:35:14;;;;;;;15.02;8.90;;;;;;;;;;4995665;28;20200;-84
2023/04/06 07:37:40;;;;;;;11.85;8.48;;;;;;;;;;4998289;28;20051;-85
2023/04/06 07:40:06;;;;;;;10.52;8.60;;;;;;;;;;4997570;28;20044;-85
2023/04/06 07:42:33;;;;;;;11.38;8.70;;;;;;;;;;4997346;28;20470;-85
2023/04/06 07:44:59;;;;;;;11.30;8.85;;;;;;;;;;4996305;28;20057;-85
2023/04/06 07:47:25;;;;;;;11.98;9.35;;;;;;;;;;4997559;28;20042;-84
2023/04/06 07:49:51;;;;;;;11.10;8.77;;;;;;;;;;4995773;28;20419;-85
2023/04/06 07:52:17;;;;;;;12.57;8.65;;;;;;;;;;4994247;28;20112;-85
2023/04/06 07:54:44;;;;;;;12.85;9.13;;;;;;;;;;4992631;28;20511;-85
2023/04/06 07:57:10;;;;;;;11.55;9.00;;;;;;;;;;4996521;28;20370;-85
2023/04/06 07:59:36;;;;;;;12.65;9.35;;;;;;;;;;4997594;28;20065;-86
2023/04/06 08:02:02;;;;;;;11.70;9.20;;;;;;;;;;4995646;28;20042;-86
2023/04/06 08:04:28;;;;;;;14.23;9.05;;;;;;;;;;4995431;28;20042;-86
2023/04/06 08:06:54;;;;;;;13.77;9.30;;;;;;;;;;4995449;28;20153;-86
2023/04/06 08:09:20;;;;;;;12.77;9.27;;;;;;;;;;4997452;28;20050;-86
2023/04/06 08:11:47;;;;;;;13.80;9.07;;;;;;;;;;5000159;28;20050;-84
2023/04/06 08:14:13;;;;;;;12.57;8.85;;;;;;;;;;4998593;28;20035;-85
2023/04/06 08:16:39;;;;;;;13.27;9.38;;;;;;;;;;5001073;28;20046;-85
2023/04/06 08:19:07;;;;;;;15.65;10.15;;;;;;;;;;5000837;28;20050;-85
2023/04/06 08:21:33;;;;;;;14.02;10.07;;;;;;;;;;4999746;28;20125;-85
2023/04/06 08:23:59;;;;;;;14.85;9.43;;;;;;;;;;4999403;28;20600;-86
2023/04/06 08:26:25;;;;;;;12.45;9.50;;;;;;;;;;5001568;28;20424;-86
2023/04/06 08:28:52;;;;;;;10.90;9.38;;;;;;;;;;5001472;28;20635;-86
2023/04/06 08:31:18;;;;;;;13.57;9.80;;;;;;;;;;5000417;28;20050;-86
2023/04/06 08:33:44;;;;;;;15.43;10.27;;;;;;;;;;5003207;28;20054;-86
2023/04/06 08:36:10;;;;;;;14.27;9.65;;;;;;;;;;5001003;28;20390;-88
2023/04/06 08:38:36;;;;;;;12.85;10.02;;;;;;;;;;5001905;28;20046;-87
2023/04/06 08:41:10;;;;;;;13.60;10.20;;;;;;;;;;5002334;28;20046;-86
2023/04/06 08:43:42;;;;;;;12.25;10.23;;;;;;;;;;4998153;28;20104;-86
2023/04/06 08:46:10;;;;;;;14.13;10.32;;;;;;;;;;5000660;28;20049;-86
2023/04/06 08:48:36;;;;;;;10.93;9.30;;;;;;;;;;5014115;28;20042;-84
2023/04/06 08:51:03;;;;;;;14.60;9.90;;;;;;;;;;5012810;28;20058;-86
2023/04/06 08:53:29;;;;;;;14.57;10.32;;;;;;;;;;5019409;28;20026;-86
2023/04/06 08:55:56;;;;;;;15.90;10.00;;;;;;;;;;5005829;28;20461;-86
2023/04/06 08:58:23;;;;;;;12.73;9.75;;;;;;;;;;5001348;28;20046;-87
2023/04/06 09:00:50;;;;;;;12.77;9.95;;;;;;;;;;5000009;28;20042;-86
2023/04/06 09:03:17;;;;;;;13.77;10.13;;;;;;;;;;4997765;28;20047;-86
2023/04/06 09:05:43;;;;;;;15.00;10.48;;;;;;;;;;4999386;28;20461;-86
2023/04/06 09:08:10;;;;;;;13.05;9.82;;;;;;;;;;4999337;28;20487;-86
2023/04/06 09:10:36;;;;;;;18.10;10.18;;;;;;;;;;5000381;28;20458;-87
2023/04/06 09:13:05;;;;;;;14.75;9.65;;;;;;;;;;5000215;28;20575;-86
2023/04/06 09:15:32;;;;;;;14.80;10.25;;;;;;;;;;4999721;28;20098;-88
2023/04/06 09:17:58;;;;;;;13.38;9.80;;;;;;;;;;5000734;28;20085;-86
2023/04/06 09:20:28;;;;;;;13.80;9.82;;;;;;;;;;4994595;28;20046;-87
2023/04/06 09:22:54;;;;;;;14.23;9.88;;;;;;;;;;4999661;28;20050;-87
2023/04/06 09:25:26;;;;;;;13.90;9.93;;;;;;;;;;4998182;28;20051;-86
2023/04/06 09:28:00;;;;;;;12.82;9.70;;;;;;;;;;4999002;28;20471;-86
2023/04/06 09:30:26;;;;;;;16.55;10.20;;;;;;;;;;4999363;28;20069;-86
2023/04/06 09:32:53;;;;;;;13.98;10.82;;;;;;;;;;4999675;28;20056;-86
2023/04/06 09:35:20;;;;;;;15.15;9.88;;;;;;;;;;4999286;28;20042;-86
2023/04/06 09:37:47;;;;;;;14.27;10.18;;;;;;;;;;4996081;28;20050;-85
2023/04/06 09:40:13;;;;;;;13.32;10.70;;;;;;;;;;4998048;28;20353;-86
2023/04/06 09:42:43;;;;;;;15.57;10.27;;;;;;;;;;4998885;28;20118;-86
2023/04/06 09:45:10;;;;;;;18.98;10.73;;;;;;;;;;4998720;28;20038;-86
2023/04/06 09:47:37;;;;;;;15.50;10.45;;;;;;;;;;4998784;28;20125;-86
2023/04/06 09:50:03;;;;;;;15.73;10.38;;;;;;;;;;4999137;28;20038;-86
2023/04/06 09:52:34;;;;;;;13.10;10.90;;;;;;;;;;4991311;28;20464;-86
2023/04/06 09:55:02;;;;;;;16.37;11.83;;;;;;;;;;4984537;28;20050;-86
2023/04/06 09:57:33;;;;;;;20.13;11.65;;;;;;;;;;5000543;28;20062;-86
2023/04/06 09:59:59;;;;;;;16.40;11.65;;;;;;;;;;4996574;28;20133;-86
2023/04/06 10:02:28;;;;;;;19.15;11.32;;;;;;;;;;4995089;28;20138;-85
2023/04/06 10:04:59;;;;;;;20.90;13.23;;;;;;;;;;5001680;28;20039;-85
2023/04/06 10:07:26;;;;;;;17.65;11.57;;;;;;;;;;4997853;28;20056;-86
2023/04/06 10:09:54;;;;;;;17.25;12.50;;;;;;;;;;4999618;28;20062;-85
2023/04/06 10:12:20;;;;;;;21.80;14.25;;;;;;;;;;4997569;28;20489;-85
2023/04/06 10:14:46;;;;;;;17.38;12.70;;;;;;;;;;4994985;28;20404;-85
2023/04/06 10:17:12;;;;;;;17.83;12.80;;;;;;;;;;4997837;28;20141;-85
2023/04/06 10:19:38;;;;;;;18.58;14.10;;;;;;;;;;4998880;28;20046;-85
2023/04/06 10:22:05;;;;;;;19.05;13.98;;;;;;;;;;5002708;28;20129;-85
2023/04/06 10:24:31;;;;;;;18.38;14.02;;;;;;;;;;5001584;28;20212;-84
2023/04/06 10:27:04;;;;;;;18.55;14.32;;;;;;;;;;5003446;28;20085;-85
2023/04/06 10:29:42;;;;;;;19.27;14.02;;;;;;;;;;4999240;28;20042;-84
2023/04/06 10:32:08;;;;;;;23.65;14.45;;;;;;;;;;4995881;28;20046;-85
2023/04/06 10:34:35;;;;;;;22.45;15.65;;;;;;;;;;5001145;28;20109;-85
2023/04/06 10:37:11;;;;;;;20.55;15.68;;;;;;;;;;5001009;28;20050;-85
2023/04/06 10:39:45;;;;;;;23.25;16.35;;;;;;;;;;5002176;28;20412;-85
2023/04/06 10:42:11;;;;;;;21.55;16.50;;;;;;;;;;5001666;28;20068;-86
2023/04/06 10:44:42;;;;;;;22.38;16.10;;;;;;;;;;4981859;28;20051;-85
2023/04/06 10:47:17;;;;;;;20.80;17.42;;;;;;;;;;4997555;28;20046;-85
2023/04/06 10:49:43;;;;;;;21.40;15.35;;;;;;;;;;5000552;28;20050;-85
2023/04/06 10:52:09;;;;;;;21.05;16.75;;;;;;;;;;4999370;28;20133;-85
2023/04/06 10:54:40;;;;;;;21.17;17.17;;;;;;;;;;5001347;28;20047;-84
2023/04/06 10:57:06;;;;;;;24.45;17.55;;;;;;;;;;5001643;28;20043;-85
2023/04/06 10:59:32;;;;;;;22.80;16.70;;;;;;;;;;5004379;28;20515;-86
2023/04/06 11:01:58;;;;;;;27.48;19.25;;;;;;;;;;4998273;28;20057;-86
2023/04/06 11:04:25;;;;;;;27.15;18.10;;;;;;;;;;5001073;28;20046;-84
2023/04/06 11:06:51;;;;;;;26.00;18.85;;;;;;;;;;4984080;28;20089;-86
2023/04/06 11:09:25;;;;;;;25.83;18.98;;;;;;;;;;5000981;28;20078;-85
2023/04/06 11:11:52;;;;;;;27.00;19.15;;;;;;;;;;5001093;28;20054;-86
2023/04/06 11:14:18;;;;;;;27.65;20.13;;;;;;;;;;5001407;28;20054;-85
2023/04/06 11:16:47;;;;;;;25.73;19.85;;;;;;;;;;5004032;28;20110;-85
2023/04/06 11:19:13;;;;;;;25.20;20.90;;;;;;;;;;5004933;28;20050;-84
2023/04/06 11:21:43;;;;;;;28.60;19.85;;;;;;;;;;5007476;28;20050;-84
2023/04/06 11:24:09;;;;;;;24.85;19.75;;;;;;;;;;5010202;28;20030;-84
2023/04/06 11:26:50;;;;;;;27.65;20.67;;;;;;;;;;5009017;28;20541;-85
2023/04/06 11:29:23;;;;;;;27.42;20.70;;;;;;;;;;5007559;28;20082;-85
2023/04/06 11:31:51;;;;;;;28.92;21.42;;;;;;;;;;5010347;28;20058;-84
2023/04/06 11:34:21;;;;;;;26.38;21.30;;;;;;;;;;5006966;28;20046;-84
2023/04/06 11:36:48;;;;;;;28.38;20.33;;;;;;;;;;5000067;28;20054;-86
2023/04/06 11:39:18;;;;;;;27.50;20.75;;;;;;;;;;4997971;28;20046;-83
2023/04/06 11:41:47;;;;;;;27.58;20.05;;;;;;;;;;5004679;28;20050;-84
2023/04/06 11:44:14;;;;;;;25.67;20.38;;;;;;;;;;5000588;28;20053;-84
2023/04/06 11:46:40;;;;;;;25.58;19.58;;;;;;;;;;4998076;28;20042;-85
2023/04/06 11:49:06;;;;;;;28.02;20.35;;;;;;;;;;4998826;28;20046;-85
2023/04/06 11:51:36;;;;;;;26.60;20.70;;;;;;;;;;5003098;28;20046;-85
2023/04/06 11:54:02;;;;;;;26.75;20.73;;;;;;;;;;5003737;28;20049;-85
2023/04/06 11:56:29;;;;;;;27.90;21.75;;;;;;;;;;5002214;28;20463;-84
2023/04/06 11:59:02;;;;;;;25.25;20.52;;;;;;;;;;5004550;28;20102;-85
2023/04/06 12:01:29;;;;;;;24.70;20.52;;;;;;;;;;5001916;28;20053;-85
2023/04/06 12:03:55;;;;;;;24.30;20.33;;;;;;;;;;5000469;28;20038;-86
2023/04/06 12:06:21;;;;;;;25.00;20.15;;;;;;;;;;5000594;28;20054;-85
2023/04/06 12:08:47;;;;;;;28.02;20.35;;;;;;;;;;4996980;28;20524;-86
2023/04/06 12:11:13;;;;;;;26.08;20.58;;;;;;;;;;5016775;28;20050;-85
2023/04/06 12:13:39;;;;;;;24.35;20.67;;;;;;;;;;5004047;28;20065;-84
2023/04/06 12:16:05;;;;;;;31.23;21.40;;;;;;;;;;4992073;28;20114;-85
2023/04/06 12:18:32;;;;;;;25.38;21.17;;;;;;;;;;4983001;28;20129;-84
2023/04/06 12:20:58;;;;;;;25.23;20.80;;;;;;;;;;4998979;28;20130;-84
2023/04/06 12:23:24;;;;;;;25.38;21.33;;;;;;;;;;5001993;28;20046;-84
2023/04/06 12:25:50;;;;;;;35.30;21.88;;;;;;;;;;5001511;28;20071;-85
2023/04/06 12:28:16;;;;;;;25.35;20.90;;;;;;;;;;5001009;28;20042;-82
2023/04/06 12:30:42;;;;;;;27.98;21.85;;;;;;;;;;5004983;28;20038;-81
2023/04/06 12:33:08;;;;;;;27.35;22.23;;;;;;;;;;5005228;28;20035;-84
2023/04/06 12:35:35;;;;;;;28.15;22.33;;;;;;;;;;5003745;28;20168;-84
2023/04/06 12:38:01;;;;;;;27.17;21.23;;;;;;;;;;5007681;28;20043;-85
2023/04/06 12:40:27;;;;;;;25.02;21.42;;;;;;;;;;5008050;28;20046;-85
2023/04/06 12:42:53;;;;;;;26.75;21.67;;;;;;;;;;5005309;28;20050;-85
2023/04/06 12:45:19;;;;;;;25.33;21.25;;;;;;;;;;5005177;28;20046;-85
2023/04/06 12:47:45;;;;;;;27.48;21.77;;;;;;;;;;5004781;28;20177;-86
2023/04/06 12:50:11;;;;;;;29.08;21.95;;;;;;;;;;5005802;28;20082;-86
2023/04/06 12:52:37;;;;;;;27.73;22.92;;;;;;;;;;5002642;28;20049;-86
2023/04/06 12:55:05;;;;;;;28.15;23.35;;;;;;;;;;5006025;28;20101;-85
2023/04/06 12:57:31;;;;;;;27.48;22.02;;;;;;;;;;5009148;28;20082;-86
2023/04/06 12:59:58;;;;;;;28.20;22.75;;;;;;;;;;4999471;28;20046;-85
2023/04/06 13:02:24;;;;;;;29.50;22.45;;;;;;;;;;5005882;28;20075;-85
2023/04/06 13:04:50;;;;;;;29.48;22.95;;;;;;;;;;5013092;28;20529;-85
2023/04/06 13:07:17;;;;;;;30.55;22.55;;;;;;;;;;5011254;28;20053;-85
2023/04/06 13:09:43;;;;;;;29.45;23.05;;;;;;;;;;5010102;28;20046;-86
2023/04/06 13:12:09;;;;;;;26.92;22.77;;;;;;;;;;5006032;28;20105;-86
2023/04/06 13:14:35;;;;;;;27.30;21.67;;;;;;;;;;5008680;28;20077;-85
2023/04/06 13:17:01;;;;;;;30.23;23.58;;;;;;;;;;5007448;28;20043;-85
2023/04/06 13:19:27;;;;;;;28.48;22.65;;;;;;;;;;5002481;28;20054;-85
2023/04/06 13:21:56;;;;;;;28.55;22.90;;;;;;;;;;5008872;28;20054;-85
2023/04/06 13:24:23;;;;;;;29.45;22.52;;;;;;;;;;5006397;28;20074;-85
2023/04/06 13:26:49;;;;;;;26.77;22.08;;;;;;;;;;5008837;28;20043;-84
2023/04/06 13:29:16;;;;;;;30.48;21.65;;;;;;;;;;5008324;28;20047;-84
2023/04/06 13:31:42;;;;;;;32.72;22.27;;;;;;;;;;5009578;28;20053;-84
2023/04/06 13:34:08;;;;;;;30.58;22.55;;;;;;;;;;5010741;28;20057;-85
2023/04/06 13:36:34;;;;;;;29.05;23.05;;;;;;;;;;5010249;28;20196;-85
2023/04/06 13:39:00;;;;;;;30.48;23.92;;;;;;;;;;5009947;28;20042;-85
2023/04/06 13:41:26;;;;;;;31.45;22.88;;;;;;;;;;5009428;28;20042;-86
2023/04/06 13:43:53;;;;;;;27.23;21.33;;;;;;;;;;5008513;28;20047;-85
2023/04/06 13:46:19;;;;;;;27.65;22.50;;;;;;;;;;5006964;28;20044;-86
2023/04/06 13:48:46;;;;;;;28.02;22.35;;;;;;;;;;5007280;28;20046;-84
2023/04/06 13:51:13;;;;;;;28.77;21.88;;;;;;;;;;5008956;28;20042;-85
2023/04/06 13:53:39;;;;;;;29.48;22.33;;;;;;;;;;5014611;28;20400;-85
2023/04/06 13:56:06;;;;;;;28.80;22.75;;;;;;;;;;5014326;28;20045;-85
2023/04/06 13:58:32;;;;;;;27.50;22.80;;;;;;;;;;5010130;28;20052;-85
2023/04/06 14:01:06;;;;;;;24.95;21.42;;;;;;;;;;5009095;28;20070;-85
2023/04/06 14:03:32;;;;;;;29.20;22.67;;;;;;;;;;5005023;28;20062;-86
2023/04/06 14:05:58;;;;;;;27.85;23.33;;;;;;;;;;5006019;28;20088;-84
2023/04/06 14:08:24;;;;;;;29.63;23.10;;;;;;;;;;5000927;28;20485;-86
2023/04/06 14:10:50;;;;;;;27.17;22.48;;;;;;;;;;5007008;28;20061;-86
2023/04/06 14:13:17;;;;;;;29.98;22.88;;;;;;;;;;5007663;28;20060;-86
2023/04/06 14:15:43;;;;;;;28.10;22.55;;;;;;;;;;5000103;28;20116;-86
2023/04/06 14:18:09;;;;;;;28.88;22.10;;;;;;;;;;5000037;28;20050;-85
2023/04/06 14:20:35;;;;;;;32.00;22.77;;;;;;;;;;4995064;28;20046;-85
2023/04/06 14:23:02;;;;;;;27.20;22.25;;;;;;;;;;4996446;28;20053;-85